createdAt,value
2022-12-25T00:00:46.070Z,44.3
2022-12-25T00:02:00.203Z,46.7
2022-12-25T00:03:14.461Z,41.5
2022-12-25T00:04:28.526Z,45.3
2022-12-25T00:05:42.580Z,43.1
2022-12-25T00:07:04.988Z,47.4
2022-12-25T00:09:24.525Z,42.8
2022-12-25T00:10:34.765Z,53.6
2022-12-25T00:11:44.908Z,46.4
2022-12-25T00:12:55.182Z,53.8
2022-12-25T00:14:05.470Z,59.5
2022-12-25T00:15:15.724Z,52.3
2022-12-25T00:16:25.961Z,74.6
2022-12-25T00:17:36.211Z,53.6
2022-12-25T00:18:46.384Z,54.4
2022-12-25T00:19:56.743Z,53.5
2022-12-25T00:21:06.904Z,68.5
2022-12-25T00:22:17.186Z,107.8
2022-12-25T00:23:27.423Z,43.6
2022-12-25T00:24:37.684Z,64.6
2022-12-25T00:25:47.856Z,37.3
2022-12-25T00:26:58.122Z,100.6
2022-12-25T00:28:08.419Z,48.4
2022-12-25T00:29:18.648Z,61.3
2022-12-25T00:30:28.906Z,51.4
2022-12-25T00:31:39.164Z,70.6
2022-12-25T00:32:49.348Z,61.8
2022-12-25T00:33:59.641Z,122.7
2022-12-25T00:35:09.851Z,86
2022-12-25T00:36:20.086Z,80.9
2022-12-25T00:37:30.321Z,139.7
2022-12-25T00:38:40.762Z,33
2022-12-25T00:39:51.241Z,33.9
2022-12-25T00:41:01.622Z,46.1
2022-12-25T00:42:12.130Z,41.8
2022-12-25T00:43:22.524Z,48.6
2022-12-25T00:44:32.943Z,53.6
2022-12-25T00:45:43.343Z,57.4
2022-12-25T00:46:53.834Z,56.3
2022-12-25T00:48:04.257Z,46.2
2022-12-25T00:49:14.648Z,38.5
2022-12-25T00:50:25.069Z,50.9
2022-12-25T00:51:35.553Z,39.5
2022-12-25T00:52:45.941Z,44.9
2022-12-25T00:55:25.724Z,56
2022-12-25T00:56:36.511Z,54.1
2022-12-25T00:57:50.651Z,38.3
2022-12-25T00:59:04.702Z,32.9
2022-12-25T01:00:18.827Z,35.3
2022-12-25T01:01:32.975Z,38.8
2022-12-25T01:02:47.081Z,38.6
2022-12-25T01:04:01.294Z,38.3
2022-12-25T01:05:15.375Z,39.8
2022-12-25T01:06:29.494Z,42.9
2022-12-25T01:07:43.602Z,40.2
2022-12-25T01:08:54.491Z,49.5
2022-12-25T01:10:05.269Z,42.9
2022-12-25T01:13:48.343Z,49.7
2022-12-25T01:16:15.945Z,61.6
2022-12-25T01:17:38.189Z,48.5
2022-12-25T01:18:52.303Z,48.6
2022-12-25T01:20:06.545Z,49.9
2022-12-25T01:21:17.292Z,51.5
2022-12-25T01:22:28.061Z,49.5
2022-12-25T01:23:42.159Z,42.1
2022-12-25T01:24:56.288Z,48.6
2022-12-25T01:26:09.824Z,39.9
2022-12-25T01:27:19.962Z,47.9
2022-12-25T01:28:30.158Z,48.1
2022-12-25T01:29:40.253Z,39.4
2022-12-25T01:30:50.446Z,53.9
2022-12-25T01:32:00.657Z,47.8
2022-12-25T01:33:10.765Z,50.6
2022-12-25T01:34:20.931Z,52.5
2022-12-25T01:35:31.076Z,58.8
2022-12-25T01:36:41.233Z,46.2
2022-12-25T01:37:51.397Z,39.3
2022-12-25T01:39:01.584Z,43.9
2022-12-25T01:40:11.746Z,51.1
2022-12-25T01:41:21.911Z,55.3
2022-12-25T01:42:32.073Z,51.2
2022-12-25T01:43:42.212Z,50
2022-12-25T01:44:52.445Z,58.5
2022-12-25T01:46:02.598Z,54.5
2022-12-25T01:47:12.761Z,61.9
2022-12-25T01:48:23.070Z,60.4
2022-12-25T01:49:33.084Z,60.7
2022-12-25T01:50:43.198Z,57.5
2022-12-25T01:51:53.378Z,53.4
2022-12-25T01:53:03.595Z,57.2
2022-12-25T01:54:13.761Z,50.7
2022-12-25T01:55:23.952Z,72.9
2022-12-25T01:56:34.228Z,56.4
2022-12-25T01:57:44.419Z,56.6
2022-12-25T01:58:54.689Z,60.2
2022-12-25T02:00:04.929Z,67
2022-12-25T02:01:15.230Z,68.8
2022-12-25T02:02:25.471Z,61.1
2022-12-25T02:03:35.654Z,71.5
2022-12-25T02:04:45.892Z,67
2022-12-25T02:05:56.190Z,65.9
2022-12-25T02:07:06.453Z,55.9
2022-12-25T02:08:16.699Z,52.1
2022-12-25T02:09:26.922Z,62.9
2022-12-25T02:11:47.737Z,57.2
2022-12-25T02:12:58.252Z,69.3
2022-12-25T02:14:08.606Z,56.8
2022-12-25T02:15:19.052Z,65.2
2022-12-25T02:16:29.474Z,84.9
2022-12-25T02:17:39.891Z,62.5
2022-12-25T02:18:50.331Z,71.6
2022-12-25T02:20:00.832Z,78.7
2022-12-25T02:21:11.281Z,63.7
2022-12-25T02:22:21.641Z,62.9
2022-12-25T02:23:32.128Z,68
2022-12-25T02:24:42.481Z,70.7
2022-12-25T02:27:21.262Z,73.2
2022-12-25T02:28:35.432Z,77
2022-12-25T02:29:49.463Z,78.9
2022-12-25T02:31:00.342Z,73
2022-12-25T02:32:11.083Z,73
2022-12-25T02:33:25.275Z,74.9
2022-12-25T02:34:39.360Z,69.7
2022-12-25T02:35:53.467Z,71.5
2022-12-25T02:37:07.049Z,73.7
2022-12-25T02:38:17.186Z,75.7
2022-12-25T02:39:27.263Z,76.8
2022-12-25T02:40:37.531Z,66.2
2022-12-25T02:41:47.594Z,69.8
2022-12-25T02:42:57.833Z,65.8
2022-12-25T02:44:08.000Z,62.1
2022-12-25T02:46:28.322Z,70.1
2022-12-25T02:47:38.434Z,74.3
2022-12-25T02:48:48.556Z,77.2
2022-12-25T02:49:58.754Z,72
2022-12-25T02:51:08.919Z,76.3
2022-12-25T02:52:19.087Z,90.2
2022-12-25T02:53:29.250Z,79.1
2022-12-25T02:54:39.426Z,79.4
2022-12-25T02:55:49.548Z,78.6
2022-12-25T02:56:59.777Z,76.5
2022-12-25T02:58:09.931Z,86.1
2022-12-25T02:59:20.047Z,101
2022-12-25T03:00:30.271Z,109.7
2022-12-25T03:01:40.365Z,104
2022-12-25T03:02:50.590Z,104.5
2022-12-25T03:04:00.712Z,115.5
2022-12-25T03:05:10.871Z,110.9
2022-12-25T03:06:21.110Z,92.9
2022-12-25T03:07:31.350Z,109.9
2022-12-25T03:08:41.585Z,117.1
2022-12-25T03:09:51.850Z,104.3
2022-12-25T03:11:02.193Z,144.5
2022-12-25T03:12:12.431Z,126.9
2022-12-25T03:13:22.590Z,114.4
2022-12-25T03:14:32.831Z,121.3
2022-12-25T03:15:43.058Z,111.9
2022-12-25T03:16:53.327Z,131.6
2022-12-25T03:18:03.609Z,136.7
2022-12-25T03:19:13.827Z,123.8
2022-12-25T03:20:24.065Z,100.7
2022-12-25T03:22:05.099Z,160.6
2022-12-25T03:23:15.587Z,143
2022-12-25T03:24:26.016Z,174
2022-12-25T03:25:36.392Z,124.9
2022-12-25T03:26:46.801Z,158.7
2022-12-25T03:27:57.307Z,183.6
2022-12-25T03:29:07.739Z,192.7
2022-12-25T03:30:18.127Z,179.8
2022-12-25T03:31:28.587Z,198.8
2022-12-25T03:32:38.989Z,192.7
2022-12-25T03:33:49.393Z,212.7
2022-12-25T03:34:59.890Z,225.3
2022-12-25T03:36:10.323Z,151
2022-12-25T03:37:21.122Z,164.2
2022-12-25T03:38:35.284Z,230
2022-12-25T03:39:49.322Z,193
2022-12-25T03:41:03.526Z,155.2
2022-12-25T03:42:17.579Z,124.7
2022-12-25T03:43:31.781Z,120
2022-12-25T03:44:45.820Z,104.6
2022-12-25T03:46:00.040Z,103.9
2022-12-25T03:47:14.120Z,122.3
2022-12-25T03:48:29.588Z,121.9
2022-12-25T03:49:42.332Z,136.2
2022-12-25T03:50:57.831Z,174.9
2022-12-25T03:52:11.976Z,235.1
2022-12-25T03:55:55.016Z,204.6
2022-12-25T03:58:22.246Z,255.6
2022-12-25T03:59:31.016Z,315.9
2022-12-25T04:00:41.187Z,330.4
2022-12-25T04:01:52.768Z,300.1
2022-12-25T04:03:01.661Z,285.2
2022-12-25T04:04:11.953Z,294.9
2022-12-25T04:05:22.816Z,293.8
2022-12-25T04:06:32.429Z,286.1
2022-12-25T04:07:42.660Z,299.8
2022-12-25T04:08:52.989Z,295.5
2022-12-25T04:10:03.162Z,276.9
2022-12-25T04:11:13.543Z,329
2022-12-25T04:12:23.702Z,264.2
2022-12-25T04:13:33.967Z,224.3
2022-12-25T04:14:44.134Z,262.7
2022-12-25T04:15:54.380Z,240.6
2022-12-25T04:17:04.684Z,172.5
2022-12-25T04:18:14.904Z,216.4
2022-12-25T04:19:25.155Z,185.1
2022-12-25T04:20:35.383Z,179.2
2022-12-25T04:21:45.604Z,213
2022-12-25T04:22:55.909Z,178
2022-12-25T04:24:06.118Z,165.6
2022-12-25T04:25:16.419Z,194.7
2022-12-25T04:26:26.665Z,179.2
2022-12-25T04:27:37.028Z,170.1
2022-12-25T04:28:47.463Z,190.1
2022-12-25T04:29:57.894Z,177.1
2022-12-25T04:31:08.336Z,180.9
2022-12-25T04:32:18.841Z,176.7
2022-12-25T04:33:29.235Z,141.9
2022-12-25T04:34:39.608Z,169.3
2022-12-25T04:35:50.053Z,143.1
2022-12-25T04:37:00.492Z,134
2022-12-25T04:38:10.920Z,114.6
2022-12-25T04:39:21.332Z,137
2022-12-25T04:40:31.784Z,122.3
2022-12-25T04:41:42.194Z,134.2
2022-12-25T04:44:21.941Z,121.8
2022-12-25T04:45:32.736Z,105.2
2022-12-25T04:46:46.842Z,117.3
2022-12-25T04:48:01.077Z,125.5
2022-12-25T04:49:15.121Z,165.8
2022-12-25T04:50:29.302Z,142.5
2022-12-25T04:51:43.370Z,137
2022-12-25T04:52:57.513Z,148.9
2022-12-25T04:54:11.634Z,143.1
2022-12-25T04:55:25.806Z,132.5
2022-12-25T04:56:39.868Z,166.1
2022-12-25T04:57:50.753Z,138.3
2022-12-25T04:59:00.505Z,118.1
2022-12-25T05:00:10.696Z,132.3
2022-12-25T05:01:20.828Z,155.5
2022-12-25T05:02:31.026Z,133.3
2022-12-25T05:03:41.135Z,159.1
2022-12-25T05:04:51.389Z,181.5
2022-12-25T05:06:01.521Z,172.6
2022-12-25T05:07:11.621Z,165.9
2022-12-25T05:08:21.800Z,179.7
2022-12-25T05:09:31.971Z,155.5
2022-12-25T05:10:42.113Z,185.4
2022-12-25T05:11:52.275Z,189.9
2022-12-25T05:13:02.512Z,192.5
2022-12-25T05:14:12.599Z,226
2022-12-25T05:15:22.867Z,229.4
2022-12-25T05:17:43.089Z,194.8
2022-12-25T05:18:53.269Z,239.9
2022-12-25T05:20:03.488Z,278.7
2022-12-25T05:21:13.646Z,281.3
2022-12-25T05:22:23.808Z,236.9
2022-12-25T05:23:33.972Z,270.6
2022-12-25T05:24:44.072Z,261
2022-12-25T05:25:54.277Z,256.8
2022-12-25T05:27:04.437Z,286.6
2022-12-25T05:28:14.661Z,257.8
2022-12-25T05:29:24.915Z,305.5
2022-12-25T05:30:35.214Z,221.7
2022-12-25T05:31:45.378Z,257.7
2022-12-25T05:32:55.697Z,236.5
2022-12-25T05:34:05.878Z,207.5
2022-12-25T05:35:16.208Z,198.2
2022-12-25T05:36:26.386Z,181.7
2022-12-25T05:37:36.746Z,202.8
2022-12-25T05:38:46.860Z,156.8
2022-12-25T05:39:57.183Z,164
2022-12-25T05:41:07.414Z,147
2022-12-25T05:42:17.677Z,165.5
2022-12-25T05:43:28.047Z,139.4
2022-12-25T05:44:38.534Z,139.5
2022-12-25T05:45:48.895Z,121.6
2022-12-25T05:46:59.337Z,103.1
2022-12-25T05:48:09.756Z,105.1
2022-12-25T05:49:20.217Z,113.9
2022-12-25T05:50:30.717Z,115
2022-12-25T05:51:41.047Z,113.4
2022-12-25T05:52:51.557Z,113.2
2022-12-25T05:54:01.978Z,109.3
2022-12-25T05:55:12.490Z,100.8
2022-12-25T05:56:22.838Z,90.7
2022-12-25T05:57:33.274Z,106.1
2022-12-25T06:00:11.472Z,88.1
2022-12-25T06:01:25.654Z,98
2022-12-25T06:02:39.134Z,85.3
2022-12-25T06:03:49.224Z,91.6
2022-12-25T06:04:59.394Z,88.1
2022-12-25T06:06:09.575Z,96.4
2022-12-25T06:07:19.796Z,106.1
2022-12-25T06:08:29.903Z,85.9
2022-12-25T06:09:40.038Z,92.3
2022-12-25T06:10:50.237Z,92.8
2022-12-25T06:12:00.424Z,87.8
2022-12-25T06:13:10.539Z,80.9
2022-12-25T06:14:20.706Z,81.9
2022-12-25T06:15:30.920Z,83.9
2022-12-25T06:16:41.021Z,83.3
2022-12-25T06:17:51.187Z,78.4
2022-12-25T06:19:01.372Z,83.3
2022-12-25T06:20:11.531Z,79.3
2022-12-25T06:21:21.687Z,78.7
2022-12-25T06:22:31.851Z,74.9
2022-12-25T06:23:42.000Z,77.4
2022-12-25T06:24:52.219Z,72.2
2022-12-25T06:26:02.412Z,77.1
2022-12-25T06:27:12.512Z,76.2
2022-12-25T06:28:22.659Z,71.6
2022-12-25T06:29:32.899Z,73.2
2022-12-25T06:30:42.979Z,70.1
2022-12-25T06:31:53.260Z,70.9
2022-12-25T06:33:03.519Z,65.2
2022-12-25T06:34:13.735Z,73.1
2022-12-25T06:35:23.977Z,67.1
2022-12-25T06:36:34.221Z,65.8
2022-12-25T06:37:44.457Z,58.8
2022-12-25T06:38:54.760Z,64.8
2022-12-25T06:40:04.957Z,61.8
2022-12-25T06:41:15.260Z,66.3
2022-12-25T06:42:25.477Z,63.3
2022-12-25T06:43:35.737Z,64.5
2022-12-25T06:44:45.926Z,64.7
2022-12-25T06:45:56.229Z,60
2022-12-25T06:47:06.709Z,66.6
2022-12-25T06:48:17.107Z,67.9
2022-12-25T06:49:27.472Z,59.8
2022-12-25T06:50:37.995Z,67.8
2022-12-25T06:51:48.327Z,63.9
2022-12-25T06:52:58.782Z,70.4
2022-12-25T06:54:09.197Z,62.5
2022-12-25T06:55:19.640Z,64.3
2022-12-25T06:56:30.110Z,66.3
2022-12-25T06:57:40.486Z,72.8
2022-12-25T06:58:50.999Z,67.4
2022-12-25T07:00:01.352Z,64.9
2022-12-25T07:01:11.836Z,65.5
2022-12-25T07:03:49.810Z,58.1
2022-12-25T07:05:03.962Z,59.9
2022-12-25T07:06:18.106Z,66.2
2022-12-25T07:07:28.894Z,58.8
2022-12-25T07:08:39.676Z,56.4
2022-12-25T07:09:53.876Z,57.2
2022-12-25T07:11:07.955Z,61.1
2022-12-25T07:12:22.084Z,57.1
2022-12-25T07:13:36.245Z,62.1
2022-12-25T07:14:50.338Z,62.5
2022-12-25T07:16:04.475Z,61.6
2022-12-25T07:17:17.957Z,56.9
2022-12-25T07:18:28.166Z,54.8
2022-12-25T07:19:38.267Z,58.7
2022-12-25T07:20:48.416Z,68.4
2022-12-25T07:21:58.587Z,64.5
2022-12-25T07:23:08.808Z,58.8
2022-12-25T07:24:18.927Z,51.9
2022-12-25T07:25:29.191Z,58.7
2022-12-25T07:26:39.304Z,60.7
2022-12-25T07:27:49.400Z,58.9
2022-12-25T07:28:59.694Z,61
2022-12-25T07:30:09.735Z,65.7
2022-12-25T07:31:19.987Z,62.3
2022-12-25T07:32:30.060Z,57.2
2022-12-25T07:33:40.211Z,63.8
2022-12-25T07:34:50.370Z,59
2022-12-25T07:36:00.594Z,52.8
2022-12-25T07:37:10.757Z,52.9
2022-12-25T07:38:20.960Z,60.7
2022-12-25T07:39:31.023Z,54.2
2022-12-25T07:40:41.189Z,58.1
2022-12-25T07:41:51.358Z,50.3
2022-12-25T07:43:01.592Z,58.4
2022-12-25T07:44:11.743Z,55.1
2022-12-25T07:45:21.913Z,54.6
2022-12-25T07:46:32.152Z,58.8
2022-12-25T07:47:42.338Z,56.4
2022-12-25T07:48:52.610Z,57.4
2022-12-25T07:50:02.855Z,54.5
2022-12-25T07:51:13.093Z,60.1
2022-12-25T07:52:23.330Z,56.8
2022-12-25T07:53:33.702Z,55.8
2022-12-25T07:54:43.807Z,60.4
2022-12-25T07:55:54.129Z,55.9
2022-12-25T07:57:04.308Z,59.8
2022-12-25T07:58:14.607Z,60.9
2022-12-25T07:59:24.833Z,58.4
2022-12-25T08:00:35.061Z,52.6
2022-12-25T08:02:16.130Z,54.9
2022-12-25T08:03:26.608Z,51.1
2022-12-25T08:04:36.962Z,51.2
2022-12-25T08:05:47.364Z,52.3
2022-12-25T08:06:57.804Z,53.4
2022-12-25T08:08:08.302Z,52.3
2022-12-25T08:09:18.696Z,53.4
2022-12-25T08:10:29.160Z,51.5
2022-12-25T08:11:39.522Z,59.6
2022-12-25T08:12:49.953Z,59.8
2022-12-25T08:14:00.439Z,62
2022-12-25T08:15:10.848Z,57.7
2022-12-25T08:16:21.317Z,58.4
2022-12-25T08:17:32.118Z,56.9
2022-12-25T08:18:46.184Z,57.3
2022-12-25T08:20:00.321Z,53.2
2022-12-25T08:21:14.540Z,57.3
2022-12-25T08:22:28.625Z,58.2
2022-12-25T08:23:42.695Z,51.1
2022-12-25T08:24:56.839Z,61.3
2022-12-25T08:26:10.951Z,58.1
2022-12-25T08:27:25.153Z,58.8
2022-12-25T08:28:39.226Z,56.7
2022-12-25T08:29:53.370Z,51.9
2022-12-25T08:31:07.467Z,57.6
2022-12-25T08:32:20.956Z,50.4
2022-12-25T08:33:31.150Z,52.8
2022-12-25T08:34:41.285Z,56.6
2022-12-25T08:35:51.466Z,56.2
2022-12-25T08:37:01.623Z,46.4
2022-12-25T08:38:11.779Z,53.7
2022-12-25T08:39:21.948Z,58.5
2022-12-25T08:40:32.103Z,57.9
2022-12-25T08:41:42.261Z,54.1
2022-12-25T08:42:52.434Z,54
2022-12-25T08:44:02.593Z,52.8
2022-12-25T08:45:12.831Z,55.3
2022-12-25T08:46:22.931Z,52.2
2022-12-25T08:47:33.201Z,55
2022-12-25T08:48:43.234Z,55
2022-12-25T08:49:53.458Z,57.8
2022-12-25T08:51:03.582Z,48.6
2022-12-25T08:52:13.743Z,52
2022-12-25T08:53:23.898Z,62.3
2022-12-25T08:54:34.053Z,54.9
2022-12-25T08:55:44.217Z,52.1
2022-12-25T08:56:54.403Z,49.7
2022-12-25T08:58:04.565Z,48.5
2022-12-25T08:59:14.724Z,52.7
2022-12-25T09:00:24.885Z,54.5
2022-12-25T09:01:35.148Z,51.5
2022-12-25T09:02:45.356Z,48.9
2022-12-25T09:03:55.672Z,51.2
2022-12-25T09:05:05.862Z,49.1
2022-12-25T09:06:16.106Z,49.7
2022-12-25T09:07:26.405Z,49.9
2022-12-25T09:08:36.608Z,46.1
2022-12-25T09:09:46.831Z,45.2
2022-12-25T09:10:57.202Z,52.6
2022-12-25T09:12:07.350Z,46.2
2022-12-25T09:13:17.636Z,47.5
2022-12-25T09:14:27.893Z,48.2
2022-12-25T09:15:38.113Z,47
2022-12-25T09:16:48.490Z,49.2
2022-12-25T09:17:58.990Z,46.6
2022-12-25T09:19:09.373Z,50.3
2022-12-25T09:20:19.883Z,48.6
2022-12-25T09:21:30.275Z,47.3
2022-12-25T09:22:40.659Z,43.1
2022-12-25T09:23:51.083Z,51.8
2022-12-25T09:25:01.616Z,55
2022-12-25T09:26:12.019Z,42.3
2022-12-25T09:27:22.399Z,52.3
2022-12-25T09:28:32.806Z,39.3
2022-12-25T09:29:43.237Z,41.7
2022-12-25T09:30:53.693Z,40.5
2022-12-25T09:33:32.176Z,43.7
2022-12-25T09:34:46.223Z,44.8
2022-12-25T09:36:00.370Z,41.4
2022-12-25T09:37:10.166Z,47.1
2022-12-25T09:38:20.332Z,38.8
2022-12-25T09:39:30.534Z,38.4
2022-12-25T09:40:40.649Z,50.1
2022-12-25T09:41:50.810Z,40.6
2022-12-25T09:43:01.029Z,35.8
2022-12-25T09:44:11.156Z,43.4
2022-12-25T09:45:21.308Z,40.6
2022-12-25T09:46:31.470Z,46.3
2022-12-25T09:47:41.625Z,46
2022-12-25T09:48:51.798Z,51.7
2022-12-25T09:50:01.957Z,42.2
2022-12-25T09:51:12.130Z,45.4
2022-12-25T09:52:22.297Z,44.3
2022-12-25T09:53:32.455Z,45.4
2022-12-25T09:54:42.606Z,39.8
2022-12-25T09:55:52.767Z,39.6
2022-12-25T09:57:02.959Z,42.2
2022-12-25T09:58:13.190Z,39.9
2022-12-25T09:59:23.331Z,42.3
2022-12-25T10:00:33.488Z,45.3
2022-12-25T10:01:43.582Z,39.7
2022-12-25T10:02:53.843Z,44.3
2022-12-25T10:04:03.931Z,39.7
2022-12-25T10:05:14.169Z,37
2022-12-25T10:06:24.355Z,41.6
2022-12-25T10:07:34.590Z,43.6
2022-12-25T10:08:44.812Z,40.7
2022-12-25T10:09:55.112Z,42.4
2022-12-25T10:11:05.367Z,43.2
2022-12-25T10:12:15.564Z,39.3
2022-12-25T10:13:25.805Z,37.1
2022-12-25T10:15:46.286Z,37.7
2022-12-25T10:16:56.565Z,41
2022-12-25T10:18:06.862Z,40.4
2022-12-25T10:19:17.103Z,39
2022-12-25T10:20:27.363Z,41.8
2022-12-25T10:21:37.774Z,41.9
2022-12-25T10:22:48.133Z,34.9
2022-12-25T10:23:58.636Z,36
2022-12-25T10:25:09.062Z,36.1
2022-12-25T10:26:19.439Z,41.8
2022-12-25T10:27:29.887Z,38.8
2022-12-25T10:28:40.293Z,36.3
2022-12-25T10:29:50.724Z,39.7
2022-12-25T10:31:01.161Z,34.9
2022-12-25T10:32:11.604Z,33.6
2022-12-25T10:33:22.046Z,40.4
2022-12-25T10:34:32.000Z,36.8
2022-12-25T10:35:42.881Z,37.8
2022-12-25T10:38:22.113Z,43.4
2022-12-25T10:39:36.193Z,33.8
2022-12-25T10:40:50.303Z,44.7
2022-12-25T10:42:01.116Z,41.9
2022-12-25T10:43:11.985Z,37.5
2022-12-25T10:44:26.142Z,45.6
2022-12-25T10:45:40.185Z,36.8
2022-12-25T10:46:54.475Z,43.9
2022-12-25T10:48:08.497Z,42.8
2022-12-25T10:49:22.594Z,36.9
2022-12-25T10:50:36.690Z,44.4
2022-12-25T10:51:50.807Z,42.9
2022-12-25T10:53:05.019Z,45.8
2022-12-25T10:54:27.421Z,44.9
2022-12-25T10:56:48.082Z,49
2022-12-25T10:59:15.056Z,42.9
2022-12-25T11:00:25.288Z,46.5
2022-12-25T11:01:35.545Z,45.4
2022-12-25T11:02:45.763Z,48.8
2022-12-25T11:03:56.038Z,42.3
2022-12-25T11:05:06.437Z,46.2
2022-12-25T11:06:16.650Z,45.7
2022-12-25T11:07:26.835Z,55.2
2022-12-25T11:08:37.067Z,45.9
2022-12-25T11:09:47.241Z,43.1
2022-12-25T11:10:57.490Z,42.5
2022-12-25T11:12:07.834Z,41.7
2022-12-25T11:13:18.057Z,39.8
2022-12-25T11:14:28.242Z,45.8
2022-12-25T11:15:38.537Z,51.2
2022-12-25T11:16:48.718Z,45.5
2022-12-25T11:17:58.962Z,44.9
2022-12-25T11:19:09.214Z,41.7
2022-12-25T11:20:19.516Z,39.5
2022-12-25T11:21:29.773Z,39.2
2022-12-25T11:22:39.967Z,40.9
2022-12-25T11:23:50.186Z,44.1
2022-12-25T11:25:00.458Z,46.1
2022-12-25T11:26:10.757Z,41
2022-12-25T11:27:20.949Z,40.4
2022-12-25T11:28:31.436Z,47.4
2022-12-25T11:29:41.798Z,45.7
2022-12-25T11:30:52.303Z,45.8
2022-12-25T11:32:02.722Z,48.1
2022-12-25T11:33:13.100Z,46.6
2022-12-25T11:34:23.588Z,40.8
2022-12-25T11:35:34.030Z,40.7
2022-12-25T11:36:44.376Z,46.3
2022-12-25T11:37:54.882Z,47.4
2022-12-25T11:39:05.304Z,46.6
2022-12-25T11:40:15.685Z,42.4
2022-12-25T11:41:26.204Z,41
2022-12-25T11:42:36.601Z,40
2022-12-25T11:45:14.803Z,42.8
2022-12-25T11:46:28.883Z,41.1
2022-12-25T11:47:42.990Z,38.2
2022-12-25T11:48:53.824Z,40.7
2022-12-25T11:50:04.654Z,39.5
2022-12-25T11:51:18.735Z,43.3
2022-12-25T11:52:32.930Z,40.9
2022-12-25T11:53:46.977Z,50.6
2022-12-25T11:55:01.128Z,41
2022-12-25T11:56:15.250Z,38.7
2022-12-25T11:57:29.387Z,44.8
2022-12-25T11:58:43.493Z,38.8
2022-12-25T11:59:57.655Z,38.5
2022-12-25T12:01:11.240Z,36.4
2022-12-25T12:02:21.295Z,39.8
2022-12-25T12:03:31.454Z,35.6
2022-12-25T12:04:41.598Z,38.6
2022-12-25T12:05:51.779Z,38.8
2022-12-25T12:07:01.941Z,41.5
2022-12-25T12:08:12.171Z,38.2
2022-12-25T12:09:22.330Z,40.7
2022-12-25T12:10:32.511Z,39.4
2022-12-25T12:11:42.572Z,41.8
2022-12-25T12:12:52.803Z,43.2
2022-12-25T12:14:02.972Z,41.9
2022-12-25T12:15:13.156Z,43.2
2022-12-25T12:16:23.230Z,40.5
2022-12-25T12:17:33.518Z,42.3
2022-12-25T12:18:43.548Z,39
2022-12-25T12:19:53.736Z,41.1
2022-12-25T12:21:03.958Z,38.1
2022-12-25T12:22:14.061Z,43.7
2022-12-25T12:23:24.289Z,38.6
2022-12-25T12:24:34.481Z,44
2022-12-25T12:25:44.532Z,48
2022-12-25T12:26:54.759Z,47.3
2022-12-25T12:28:04.877Z,50.8
2022-12-25T12:29:15.113Z,60.1
2022-12-25T12:30:25.282Z,64.7
2022-12-25T12:31:35.605Z,51.4
2022-12-25T12:32:45.759Z,55
2022-12-25T12:33:56.081Z,44.6
2022-12-25T12:35:06.262Z,45.8
2022-12-25T12:36:16.520Z,55.1
2022-12-25T12:37:26.761Z,43.9
2022-12-25T12:38:37.017Z,54.2
2022-12-25T12:39:47.231Z,62.9
2022-12-25T12:40:57.553Z,54.7
2022-12-25T12:42:07.848Z,66
2022-12-25T12:43:18.079Z,59
2022-12-25T12:44:28.317Z,47.4
2022-12-25T12:46:09.359Z,56.1
2022-12-25T12:47:19.697Z,51.9
2022-12-25T12:48:30.140Z,60.8
2022-12-25T12:49:40.628Z,57.3
2022-12-25T12:50:50.982Z,46.8
2022-12-25T12:52:01.466Z,56.1
2022-12-25T12:53:11.867Z,49.7
2022-12-25T12:54:22.344Z,42.3
2022-12-25T12:55:32.702Z,47.2
2022-12-25T12:56:43.136Z,41.6
2022-12-25T12:57:53.622Z,53.1
2022-12-25T12:59:04.101Z,58.3
2022-12-25T13:00:14.441Z,81.5
2022-12-25T13:01:25.241Z,74
2022-12-25T13:02:39.455Z,80.7
2022-12-25T13:03:53.507Z,103.3
2022-12-25T13:05:07.622Z,90.4
2022-12-25T13:06:21.764Z,41.8
2022-12-25T13:07:35.942Z,54.9
2022-12-25T13:08:50.009Z,58.4
2022-12-25T13:10:04.167Z,50.1
2022-12-25T13:11:18.285Z,46
2022-12-25T13:12:32.404Z,45.2
2022-12-25T13:13:46.515Z,44.1
2022-12-25T13:15:00.653Z,35.6
2022-12-25T13:16:14.793Z,38.4
2022-12-25T13:19:57.923Z,41.9
2022-12-25T13:22:26.204Z,33.7
2022-12-25T13:24:53.177Z,36.4
2022-12-25T13:26:03.374Z,37
2022-12-25T13:27:13.656Z,37.2
2022-12-25T13:28:23.889Z,33.5
2022-12-25T13:29:34.116Z,39.7
2022-12-25T13:30:44.341Z,41.1
2022-12-25T13:31:54.670Z,42.8
2022-12-25T13:33:04.860Z,43.3
2022-12-25T13:34:15.180Z,38.1
2022-12-25T13:35:25.352Z,38
2022-12-25T13:36:35.594Z,38.6
2022-12-25T13:37:45.819Z,43.1
2022-12-25T13:38:56.099Z,34.7
2022-12-25T13:40:06.364Z,40.9
2022-12-25T13:41:16.581Z,38.3
2022-12-25T13:42:26.822Z,38.4
2022-12-25T13:43:37.059Z,41.6
2022-12-25T13:44:47.296Z,38.1
2022-12-25T13:45:57.617Z,40.1
2022-12-25T13:47:07.879Z,37
2022-12-25T13:48:18.058Z,37.7
2022-12-25T13:49:28.298Z,40.8
2022-12-25T13:50:38.540Z,38.8
2022-12-25T13:51:48.764Z,43.1
2022-12-25T13:52:59.098Z,40.8
2022-12-25T13:54:09.520Z,39.6
2022-12-25T13:55:19.900Z,40.9
2022-12-25T13:56:30.311Z,37.2
2022-12-25T13:57:40.816Z,41.3
2022-12-25T13:58:51.174Z,39.2
2022-12-25T14:00:01.623Z,39
2022-12-25T14:01:12.092Z,40
2022-12-25T14:02:22.466Z,36.6
2022-12-25T14:03:32.908Z,40.1
2022-12-25T14:04:43.322Z,41.2
2022-12-25T14:05:53.775Z,38.8
2022-12-25T14:07:04.208Z,44.5
2022-12-25T14:08:14.625Z,44.4
2022-12-25T14:10:54.340Z,45.3
2022-12-25T14:12:08.480Z,43.1
2022-12-25T14:13:22.583Z,52.4
2022-12-25T14:14:33.345Z,42.3
2022-12-25T14:15:44.130Z,39.1
2022-12-25T14:16:58.284Z,46.1
2022-12-25T14:18:12.465Z,70.4
2022-12-25T14:19:26.572Z,45.8
2022-12-25T14:20:40.645Z,43.9
2022-12-25T14:21:54.783Z,54.5
2022-12-25T14:23:08.958Z,41.7
2022-12-25T14:24:23.145Z,39.9
2022-12-25T14:25:37.224Z,49.2
2022-12-25T14:26:59.578Z,43.4
2022-12-25T14:29:19.016Z,40.5
2022-12-25T14:30:29.266Z,44.6
2022-12-25T14:31:39.556Z,44.3
2022-12-25T14:32:49.730Z,43.6
2022-12-25T14:34:00.046Z,40.2
2022-12-25T14:35:10.288Z,42.9
2022-12-25T14:36:20.488Z,41.8
2022-12-25T14:37:30.717Z,45.4
2022-12-25T14:38:40.978Z,47.7
2022-12-25T14:39:51.207Z,42.5
2022-12-25T14:41:01.533Z,43.7
2022-12-25T14:42:11.773Z,46.3
2022-12-25T14:43:22.037Z,40.4
2022-12-25T14:44:32.278Z,40.9
2022-12-25T14:45:42.436Z,46.9
2022-12-25T14:46:52.746Z,41.9
2022-12-25T14:48:02.986Z,41.7
2022-12-25T14:49:13.189Z,44.7
2022-12-25T14:50:23.534Z,44.2
2022-12-25T14:51:33.681Z,42.5
2022-12-25T14:52:43.905Z,40.9
2022-12-25T14:53:54.237Z,48.6
2022-12-25T14:55:04.465Z,42.9
2022-12-25T14:56:14.657Z,42.1
2022-12-25T14:57:24.916Z,44.9
2022-12-25T14:58:35.347Z,40.6
2022-12-25T14:59:45.757Z,41.6
2022-12-25T15:00:56.264Z,42.1
2022-12-25T15:02:06.614Z,41.4
2022-12-25T15:03:17.115Z,41
2022-12-25T15:04:27.491Z,46.6
2022-12-25T15:05:37.925Z,39.2
2022-12-25T15:06:48.342Z,39.6
2022-12-25T15:07:58.870Z,41.6
2022-12-25T15:09:09.270Z,43.5
2022-12-25T15:10:19.655Z,39.4
2022-12-25T15:11:30.094Z,46.3
2022-12-25T15:12:40.510Z,46.3
2022-12-25T15:15:20.231Z,39.5
2022-12-25T15:16:31.051Z,58.3
2022-12-25T15:17:45.164Z,47.8
2022-12-25T15:18:59.293Z,42.1
2022-12-25T15:20:13.514Z,39.1
2022-12-25T15:21:27.552Z,42.3
2022-12-25T15:22:41.091Z,37.7
2022-12-25T15:23:51.186Z,39.6
2022-12-25T15:25:01.367Z,31.8
2022-12-25T15:26:11.604Z,38.5
2022-12-25T15:27:21.743Z,43.6
2022-12-25T15:28:31.907Z,44.6
2022-12-25T15:29:42.007Z,46.9
2022-12-25T15:32:02.386Z,41
2022-12-25T15:33:12.568Z,43.9
2022-12-25T15:34:22.728Z,49.2
2022-12-25T15:35:32.827Z,38.5
2022-12-25T15:36:42.979Z,45.4
2022-12-25T15:37:53.141Z,42.9
2022-12-25T15:39:03.309Z,41.3
2022-12-25T15:40:13.496Z,39.1
2022-12-25T15:41:23.666Z,47.6
2022-12-25T15:42:33.808Z,45
2022-12-25T15:43:43.960Z,42
2022-12-25T15:44:54.194Z,44.3
2022-12-25T15:46:04.348Z,41.9
2022-12-25T15:47:14.634Z,46.7
2022-12-25T15:48:24.886Z,41.9
2022-12-25T15:49:34.840Z,44.7
2022-12-25T15:50:44.936Z,42.3
2022-12-25T15:51:55.244Z,40.6
2022-12-25T15:53:05.444Z,40.1
2022-12-25T15:54:15.741Z,43.3
2022-12-25T15:55:25.983Z,38.1
2022-12-25T15:56:36.222Z,43
2022-12-25T15:57:46.415Z,51.4
2022-12-25T15:58:56.682Z,44.9
2022-12-25T16:00:06.923Z,45.5
2022-12-25T16:01:17.164Z,48
2022-12-25T16:02:27.402Z,48.2
2022-12-25T16:03:37.723Z,44.9
2022-12-25T16:04:47.882Z,45.3
2022-12-25T16:05:58.199Z,48.1
2022-12-25T16:07:08.590Z,46
2022-12-25T16:08:19.093Z,36.9
2022-12-25T16:09:29.500Z,37.4
2022-12-25T16:10:39.882Z,44
2022-12-25T16:11:50.297Z,42.9
2022-12-25T16:13:00.804Z,48.6
2022-12-25T16:14:11.261Z,40.7
2022-12-25T16:15:21.663Z,47.8
2022-12-25T16:16:32.040Z,44
2022-12-25T16:17:42.446Z,43.3
2022-12-25T16:18:52.936Z,40.8
2022-12-25T16:20:03.322Z,40.8
2022-12-25T16:21:13.749Z,41.1
2022-12-25T16:23:52.180Z,41.7
2022-12-25T16:25:06.382Z,41.2